sensor_id;sensor_type;location;lat;lon;timestamp;pressure;altitude;pressure_sealevel;temperature;humidity
43125;BME280;49182;50.788;7.318;2023-08-01T00:02:23;99316.84;;;17.06;100.00
43125;BME280;49182;50.788;7.318;2023-08-01T00:07:27;99288.72;;;17.04;100.00
43125;BME280;49182;50.788;7.318;2023-08-01T00:12:30;99268.84;;;17.06;100.00
43125;BME280;49182;50.788;7.318;2023-08-01T00:17:32;99276.63;;;17.14;100.00
43125;BME280;49182;50.788;7.318;2023-08-01T00:22:33;99273.94;;;17.21;100.00
43125;BME280;49182;50.788;7.318;2023-08-01T00:27:36;99250.13;;;17.26;100.00
43125;BME280;49182;50.788;7.318;2023-08-01T00:32:42;99237.41;;;17.28;100.00
43125;BME280;49182;50.788;7.318;2023-08-01T00:37:44;99220.56;;;17.27;100.00
43125;BME280;49182;50.788;7.318;2023-08-01T00:42:47;99234.09;;;17.26;100.00
43125;BME280;49182;50.788;7.318;2023-08-01T00:47:49;99230.19;;;17.28;100.00
43125;BME280;49182;50.788;7.318;2023-08-01T00:52:52;99234.50;;;17.23;100.00
43125;BME280;49182;50.788;7.318;2023-08-01T00:57:55;99230.19;;;17.28;100.00
43125;BME280;49182;50.788;7.318;2023-08-01T01:02:57;99227.09;;;17.31;100.00
43125;BME280;49182;50.788;7.318;2023-08-01T01:08:02;99201.69;;;17.22;100.00
43125;BME280;49182;50.788;7.318;2023-08-01T01:13:05;99216.00;;;17.34;100.00
43125;BME280;49182;50.788;7.318;2023-08-01T01:18:07;99202.63;;;17.41;100.00
43125;BME280;49182;50.788;7.318;2023-08-01T01:23:11;99176.59;;;17.36;100.00
43125;BME280;49182;50.788;7.318;2023-08-01T01:28:13;99156.28;;;17.35;100.00
43125;BME280;49182;50.788;7.318;2023-08-01T01:33:16;99152.22;;;17.26;100.00
43125;BME280;49182;50.788;7.318;2023-08-01T01:38:19;99147.06;;;17.31;100.00
43125;BME280;49182;50.788;7.318;2023-08-01T01:43:21;99131.44;;;17.35;100.00
43125;BME280;49182;50.788;7.318;2023-08-01T01:48:23;99119.94;;;17.34;100.00
43125;BME280;49182;50.788;7.318;2023-08-01T01:53:26;99126.34;;;17.33;100.00
43125;BME280;49182;50.788;7.318;2023-08-01T01:58:28;99132.09;;;17.30;100.00
43125;BME280;49182;50.788;7.318;2023-08-01T02:03:29;99145.19;;;17.38;100.00
43125;BME280;49182;50.788;7.318;2023-08-01T02:13:34;99101.00;;;17.11;100.00
43125;BME280;49182;50.788;7.318;2023-08-01T02:18:36;99129.66;;;17.22;100.00
43125;BME280;49182;50.788;7.318;2023-08-01T02:23:39;99121.41;;;17.30;100.00
43125;BME280;49182;50.788;7.318;2023-08-01T02:28:41;99133.06;;;17.36;100.00
43125;BME280;49182;50.788;7.318;2023-08-01T02:33:42;99139.06;;;17.31;100.00
43125;BME280;49182;50.788;7.318;2023-08-01T02:38:46;99124.50;;;17.34;100.00
43125;BME280;49182;50.788;7.318;2023-08-01T02:43:48;99132.50;;;17.34;100.00
43125;BME280;49182;50.788;7.318;2023-08-01T02:48:50;99123.41;;;17.42;100.00
43125;BME280;49182;50.788;7.318;2023-08-01T02:53:53;99138.00;;;17.39;100.00
43125;BME280;49182;50.788;7.318;2023-08-01T02:58:55;99147.84;;;17.38;100.00
43125;BME280;49182;50.788;7.318;2023-08-01T03:03:57;99133.91;;;17.36;100.00
43125;BME280;49182;50.788;7.318;2023-08-01T03:09:00;99155.06;;;17.31;100.00
43125;BME280;49182;50.788;7.318;2023-08-01T03:14:02;99152.19;;;17.33;100.00
43125;BME280;49182;50.788;7.318;2023-08-01T03:19:04;99165.75;;;17.31;100.00
43125;BME280;49182;50.788;7.318;2023-08-01T03:24:07;99152.63;;;17.23;100.00
43125;BME280;49182;50.788;7.318;2023-08-01T03:29:09;99171.84;;;17.01;100.00
43125;BME280;49182;50.788;7.318;2023-08-01T03:34:11;99180.00;;;17.06;100.00
43125;BME280;49182;50.788;7.318;2023-08-01T03:39:14;99185.41;;;16.86;100.00
43125;BME280;49182;50.788;7.318;2023-08-01T03:44:16;99195.22;;;16.92;100.00
43125;BME280;49182;50.788;7.318;2023-08-01T03:49:17;99206.34;;;16.82;100.00
43125;BME280;49182;50.788;7.318;2023-08-01T03:54:20;99207.59;;;16.67;100.00
43125;BME280;49182;50.788;7.318;2023-08-01T03:59:22;99212.53;;;16.70;100.00
43125;BME280;49182;50.788;7.318;2023-08-01T04:04:24;99213.97;;;16.52;100.00
43125;BME280;49182;50.788;7.318;2023-08-01T04:09:27;99213.56;;;16.62;100.00
43125;BME280;49182;50.788;7.318;2023-08-01T04:14:29;99207.63;;;16.60;100.00
43125;BME280;49182;50.788;7.318;2023-08-01T04:19:30;99222.97;;;16.51;100.00
43125;BME280;49182;50.788;7.318;2023-08-01T04:24:33;99228.09;;;16.46;100.00
43125;BME280;49182;50.788;7.318;2023-08-01T04:29:35;99232.41;;;16.47;100.00
43125;BME280;49182;50.788;7.318;2023-08-01T04:34:37;99229.31;;;16.37;100.00
43125;BME280;49182;50.788;7.318;2023-08-01T04:39:40;99227.69;;;16.43;100.00
43125;BME280;49182;50.788;7.318;2023-08-01T04:44:42;99234.66;;;16.44;100.00
43125;BME280;49182;50.788;7.318;2023-08-01T04:49:44;99243.06;;;16.47;100.00
43125;BME280;49182;50.788;7.318;2023-08-01T04:54:47;99248.59;;;16.46;100.00
43125;BME280;49182;50.788;7.318;2023-08-01T04:59:48;99255.75;;;16.39;100.00
43125;BME280;49182;50.788;7.318;2023-08-01T05:04:51;99256.41;;;16.41;100.00
43125;BME280;49182;50.788;7.318;2023-08-01T05:09:54;99261.50;;;16.29;100.00
43125;BME280;49182;50.788;7.318;2023-08-01T05:14:55;99233.44;;;16.20;100.00
43125;BME280;49182;50.788;7.318;2023-08-01T05:19:57;99267.88;;;16.35;100.00
43125;BME280;49182;50.788;7.318;2023-08-01T05:25:00;99280.75;;;16.31;100.00
43125;BME280;49182;50.788;7.318;2023-08-01T05:30:02;99282.59;;;16.24;100.00
43125;BME280;49182;50.788;7.318;2023-08-01T05:35:04;99279.94;;;16.24;100.00
43125;BME280;49182;50.788;7.318;2023-08-01T05:40:09;99192.38;;;15.62;100.00
43125;BME280;49182;50.788;7.318;2023-08-01T05:45:11;99287.91;;;16.17;100.00
43125;BME280;49182;50.788;7.318;2023-08-01T05:50:13;99264.53;;;16.06;100.00
43125;BME280;49182;50.788;7.318;2023-08-01T05:55:16;99281.34;;;16.13;100.00
43125;BME280;49182;50.788;7.318;2023-08-01T06:00:18;99226.59;;;15.71;100.00
43125;BME280;49182;50.788;7.318;2023-08-01T06:05:20;99307.59;;;16.30;100.00
43125;BME280;49182;50.788;7.318;2023-08-01T06:10:23;99306.38;;;16.32;100.00
43125;BME280;49182;50.788;7.318;2023-08-01T06:15:25;99321.56;;;16.51;100.00
43125;BME280;49182;50.788;7.318;2023-08-01T06:20:27;99324.66;;;16.81;100.00
43125;BME280;49182;50.788;7.318;2023-08-01T06:25:30;99325.28;;;16.96;100.00
43125;BME280;49182;50.788;7.318;2023-08-01T06:30:32;99326.06;;;17.10;100.00
43125;BME280;49182;50.788;7.318;2023-08-01T06:35:33;99319.88;;;17.23;100.00
43125;BME280;49182;50.788;7.318;2023-08-01T06:40:37;99325.84;;;17.18;97.88
43125;BME280;49182;50.788;7.318;2023-08-01T06:45:38;99321.97;;;17.21;97.39
43125;BME280;49182;50.788;7.318;2023-08-01T06:50:40;99322.25;;;17.57;97.54
43125;BME280;49182;50.788;7.318;2023-08-01T06:55:43;99323.47;;;17.68;97.65
43125;BME280;49182;50.788;7.318;2023-08-01T07:00:45;99330.88;;;17.66;90.74
43125;BME280;49182;50.788;7.318;2023-08-01T07:05:46;99315.59;;;17.86;90.21
43125;BME280;49182;50.788;7.318;2023-08-01T07:10:49;99323.81;;;17.85;89.92
43125;BME280;49182;50.788;7.318;2023-08-01T07:15:51;99323.06;;;17.71;88.25
43125;BME280;49182;50.788;7.318;2023-08-01T07:20:59;99338.13;;;17.97;89.62
43125;BME280;49182;50.788;7.318;2023-08-01T07:26:02;99334.81;;;18.08;85.61
43125;BME280;49182;50.788;7.318;2023-08-01T07:31:05;99342.34;;;18.17;86.09
43125;BME280;49182;50.788;7.318;2023-08-01T07:36:10;99347.75;;;18.04;83.23
43125;BME280;49182;50.788;7.318;2023-08-01T07:41:15;99348.47;;;18.25;83.50
43125;BME280;49182;50.788;7.318;2023-08-01T07:46:16;99346.00;;;18.23;84.69
43125;BME280;49182;50.788;7.318;2023-08-01T07:51:18;99353.16;;;18.29;82.26
43125;BME280;49182;50.788;7.318;2023-08-01T07:56:21;99354.16;;;18.35;81.28
43125;BME280;49182;50.788;7.318;2023-08-01T08:01:23;99342.91;;;18.26;80.61
43125;BME280;49182;50.788;7.318;2023-08-01T08:06:24;99364.34;;;18.19;81.77
43125;BME280;49182;50.788;7.318;2023-08-01T08:11:27;99366.84;;;18.08;81.60
43125;BME280;49182;50.788;7.318;2023-08-01T08:16:29;99360.09;;;18.37;82.28
43125;BME280;49182;50.788;7.318;2023-08-01T08:21:31;99363.56;;;18.44;79.24
43125;BME280;49182;50.788;7.318;2023-08-01T08:26:34;99377.50;;;18.14;79.54
43125;BME280;49182;50.788;7.318;2023-08-01T08:31:36;99371.31;;;18.21;80.09
43125;BME280;49182;50.788;7.318;2023-08-01T08:36:38;99367.47;;;18.41;79.28
43125;BME280;49182;50.788;7.318;2023-08-01T08:41:45;99361.94;;;18.74;78.08
43125;BME280;49182;50.788;7.318;2023-08-01T08:46:49;99357.63;;;18.73;74.77
43125;BME280;49182;50.788;7.318;2023-08-01T08:51:51;99367.13;;;18.69;74.33
43125;BME280;49182;50.788;7.318;2023-08-01T08:56:56;99346.19;;;18.59;74.75
43125;BME280;49182;50.788;7.318;2023-08-01T09:01:58;99380.88;;;18.73;72.63
43125;BME280;49182;50.788;7.318;2023-08-01T09:07:02;99380.66;;;18.74;73.47
43125;BME280;49182;50.788;7.318;2023-08-01T09:12:09;99383.75;;;18.71;72.58
43125;BME280;49182;50.788;7.318;2023-08-01T09:17:11;99382.78;;;18.90;72.68
43125;BME280;49182;50.788;7.318;2023-08-01T09:22:13;99377.00;;;18.93;72.59
43125;BME280;49182;50.788;7.318;2023-08-01T09:27:16;99395.28;;;19.21;71.02
43125;BME280;49182;50.788;7.318;2023-08-01T09:32:18;99390.94;;;19.45;69.05
43125;BME280;49182;50.788;7.318;2023-08-01T09:37:19;99396.09;;;20.01;68.34
43125;BME280;49182;50.788;7.318;2023-08-01T09:42:25;99393.78;;;20.23;64.72
43125;BME280;49182;50.788;7.318;2023-08-01T09:47:36;99362.00;;;20.08;63.54
43125;BME280;49182;50.788;7.318;2023-08-01T09:52:37;99403.75;;;20.16;63.82
43125;BME280;49182;50.788;7.318;2023-08-01T09:57:42;99398.31;;;20.23;64.40
43125;BME280;49182;50.788;7.318;2023-08-01T10:02:46;99417.28;;;20.21;61.42
43125;BME280;49182;50.788;7.318;2023-08-01T10:07:48;99402.97;;;20.45;62.25
43125;BME280;49182;50.788;7.318;2023-08-01T10:12:54;99382.78;;;20.73;58.16
43125;BME280;49182;50.788;7.318;2023-08-01T10:17:56;99387.34;;;20.95;57.81
43125;BME280;49182;50.788;7.318;2023-08-01T10:22:59;99387.06;;;21.15;59.12
43125;BME280;49182;50.788;7.318;2023-08-01T10:28:06;99379.34;;;21.30;59.39
43125;BME280;49182;50.788;7.318;2023-08-01T10:33:07;99389.28;;;21.53;58.35
43125;BME280;49182;50.788;7.318;2023-08-01T10:38:10;99384.81;;;21.59;58.09
43125;BME280;49182;50.788;7.318;2023-08-01T10:43:24;99364.22;;;21.76;56.75
43125;BME280;49182;50.788;7.318;2023-08-01T10:48:26;99371.78;;;22.02;54.92
43125;BME280;49182;50.788;7.318;2023-08-01T10:53:37;99380.13;;;21.77;55.59
43125;BME280;49182;50.788;7.318;2023-08-01T10:58:45;99380.97;;;21.43;55.89
43125;BME280;49182;50.788;7.318;2023-08-01T11:03:47;99385.06;;;21.22;58.64
43125;BME280;49182;50.788;7.318;2023-08-01T11:08:49;99440.19;;;20.53;63.80
43125;BME280;49182;50.788;7.318;2023-08-01T11:13:52;99434.28;;;19.97;69.58
43125;BME280;49182;50.788;7.318;2023-08-01T11:18:54;99415.69;;;20.32;70.99
43125;BME280;49182;50.788;7.318;2023-08-01T11:23:56;99327.75;;;20.10;71.07
43125;BME280;49182;50.788;7.318;2023-08-01T11:29:02;99395.69;;;20.64;69.50
43125;BME280;49182;50.788;7.318;2023-08-01T11:34:04;99399.41;;;20.63;66.50
43125;BME280;49182;50.788;7.318;2023-08-01T11:39:05;99404.88;;;20.98;64.63
43125;BME280;49182;50.788;7.318;2023-08-01T11:44:09;99404.22;;;21.37;64.04
43125;BME280;49182;50.788;7.318;2023-08-01T11:49:14;99395.91;;;21.51;60.47
43125;BME280;49182;50.788;7.318;2023-08-01T11:54:15;99363.69;;;21.51;56.60
43125;BME280;49182;50.788;7.318;2023-08-01T11:59:18;99403.56;;;21.94;55.63
43125;BME280;49182;50.788;7.318;2023-08-01T12:04:24;99407.00;;;21.77;57.14
43125;BME280;49182;50.788;7.318;2023-08-01T12:09:26;99422.28;;;21.77;57.04
43125;BME280;49182;50.788;7.318;2023-08-01T12:14:29;99427.00;;;21.35;57.54
43125;BME280;49182;50.788;7.318;2023-08-01T12:19:31;99445.38;;;21.08;55.61
43125;BME280;49182;50.788;7.318;2023-08-01T12:24:33;99447.63;;;20.81;56.87
43125;BME280;49182;50.788;7.318;2023-08-01T12:29:36;99464.00;;;20.91;62.75
43125;BME280;49182;50.788;7.318;2023-08-01T12:34:37;99444.63;;;20.89;62.68
43125;BME280;49182;50.788;7.318;2023-08-01T12:39:39;99444.38;;;21.44;63.20
43125;BME280;49182;50.788;7.318;2023-08-01T12:44:42;99437.50;;;21.60;63.95
43125;BME280;49182;50.788;7.318;2023-08-01T12:49:44;99435.63;;;21.49;61.06
43125;BME280;49182;50.788;7.318;2023-08-01T12:54:46;99439.47;;;21.29;60.86
43125;BME280;49182;50.788;7.318;2023-08-01T12:59:49;99441.44;;;20.81;65.13
43125;BME280;49182;50.788;7.318;2023-08-01T13:04:51;99446.59;;;20.52;64.67
43125;BME280;49182;50.788;7.318;2023-08-01T13:09:52;99454.31;;;20.49;59.53
43125;BME280;49182;50.788;7.318;2023-08-01T13:14:55;99458.41;;;20.63;61.89
43125;BME280;49182;50.788;7.318;2023-08-01T13:20:16;99457.53;;;20.81;60.98
43125;BME280;49182;50.788;7.318;2023-08-01T13:25:19;99427.38;;;20.85;59.34
43125;BME280;49182;50.788;7.318;2023-08-01T13:30:22;99457.41;;;21.17;58.06
43125;BME280;49182;50.788;7.318;2023-08-01T13:35:23;99459.13;;;21.53;56.44
43125;BME280;49182;50.788;7.318;2023-08-01T13:40:25;99403.63;;;21.59;53.07
43125;BME280;49182;50.788;7.318;2023-08-01T13:45:31;99361.34;;;21.66;53.85
43125;BME280;49182;50.788;7.318;2023-08-01T13:50:32;99462.38;;;22.70;50.66
43125;BME280;49182;50.788;7.318;2023-08-01T13:55:34;99464.97;;;22.37;51.47
43125;BME280;49182;50.788;7.318;2023-08-01T14:00:37;99458.72;;;22.48;50.71
43125;BME280;49182;50.788;7.318;2023-08-01T14:05:39;99455.97;;;22.59;50.35
43125;BME280;49182;50.788;7.318;2023-08-01T14:10:40;99455.41;;;22.57;51.36
43125;BME280;49182;50.788;7.318;2023-08-01T14:15:45;99453.34;;;22.48;48.73
43125;BME280;49182;50.788;7.318;2023-08-01T14:20:47;99462.75;;;22.34;50.09
43125;BME280;49182;50.788;7.318;2023-08-01T14:25:49;99442.47;;;21.91;51.62
43125;BME280;49182;50.788;7.318;2023-08-01T14:30:51;99464.09;;;21.73;52.16
43125;BME280;49182;50.788;7.318;2023-08-01T14:35:53;99489.94;;;21.51;53.13
43125;BME280;49182;50.788;7.318;2023-08-01T14:40:55;99528.63;;;20.90;60.83
43125;BME280;49182;50.788;7.318;2023-08-01T14:46:16;99540.88;;;19.70;69.73
43125;BME280;49182;50.788;7.318;2023-08-01T14:51:18;99537.84;;;19.66;72.77
43125;BME280;49182;50.788;7.318;2023-08-01T14:56:20;99529.59;;;19.68;70.93
43125;BME280;49182;50.788;7.318;2023-08-01T15:01:23;99520.69;;;19.74;70.65
43125;BME280;49182;50.788;7.318;2023-08-01T15:06:24;99503.88;;;20.03;70.25
43125;BME280;49182;50.788;7.318;2023-08-01T15:11:26;99508.09;;;20.36;69.69
43125;BME280;49182;50.788;7.318;2023-08-01T15:16:29;99506.47;;;21.24;69.45
43125;BME280;49182;50.788;7.318;2023-08-01T15:21:31;99504.06;;;21.93;67.36
43125;BME280;49182;50.788;7.318;2023-08-01T15:26:32;99512.47;;;21.61;63.71
43125;BME280;49182;50.788;7.318;2023-08-01T15:31:36;99518.69;;;22.08;62.51
43125;BME280;49182;50.788;7.318;2023-08-01T15:36:37;99513.31;;;22.20;60.78
43125;BME280;49182;50.788;7.318;2023-08-01T15:41:39;99525.66;;;21.51;59.08
43125;BME280;49182;50.788;7.318;2023-08-01T15:46:43;99528.41;;;21.21;57.64
43125;BME280;49182;50.788;7.318;2023-08-01T15:51:45;99436.75;;;20.16;56.64
43125;BME280;49182;50.788;7.318;2023-08-01T15:56:47;99541.66;;;20.38;55.32
43125;BME280;49182;50.788;7.318;2023-08-01T16:01:50;99556.81;;;20.08;57.14
43125;BME280;49182;50.788;7.318;2023-08-01T16:06:52;99566.91;;;19.88;58.81
43125;BME280;49182;50.788;7.318;2023-08-01T16:11:53;99570.13;;;19.71;60.89
43125;BME280;49182;50.788;7.318;2023-08-01T16:16:56;99587.47;;;19.37;61.48
43125;BME280;49182;50.788;7.318;2023-08-01T16:21:58;99592.97;;;19.11;64.33
43125;BME280;49182;50.788;7.318;2023-08-01T16:27:00;99589.16;;;18.94;64.39
43125;BME280;49182;50.788;7.318;2023-08-01T16:32:03;99564.00;;;18.64;66.26
43125;BME280;49182;50.788;7.318;2023-08-01T16:37:05;99579.81;;;18.65;64.84
43125;BME280;49182;50.788;7.318;2023-08-01T16:42:07;99512.09;;;18.27;64.73
43125;BME280;49182;50.788;7.318;2023-08-01T16:47:10;99590.13;;;18.62;64.68
43125;BME280;49182;50.788;7.318;2023-08-01T16:52:13;99527.72;;;18.16;65.53
43125;BME280;49182;50.788;7.318;2023-08-01T16:57:15;99592.59;;;18.50;66.68
43125;BME280;49182;50.788;7.318;2023-08-01T17:02:18;99580.06;;;18.44;66.21
43125;BME280;49182;50.788;7.318;2023-08-01T17:07:20;99587.84;;;18.52;65.93
43125;BME280;49182;50.788;7.318;2023-08-01T17:12:22;99592.19;;;18.59;66.83
43125;BME280;49182;50.788;7.318;2023-08-01T17:17:25;99592.34;;;18.65;66.22
43125;BME280;49182;50.788;7.318;2023-08-01T17:22:26;99592.97;;;18.73;66.43
43125;BME280;49182;50.788;7.318;2023-08-01T17:27:28;99602.41;;;18.76;66.81
43125;BME280;49182;50.788;7.318;2023-08-01T17:32:31;99609.41;;;18.70;68.42
43125;BME280;49182;50.788;7.318;2023-08-01T17:37:33;99619.13;;;18.58;70.40
43125;BME280;49182;50.788;7.318;2023-08-01T17:42:35;99633.09;;;18.47;70.08
43125;BME280;49182;50.788;7.318;2023-08-01T17:47:38;99650.81;;;18.28;72.86
43125;BME280;49182;50.788;7.318;2023-08-01T17:52:40;99651.44;;;17.84;77.83
43125;BME280;49182;50.788;7.318;2023-08-01T17:57:41;99652.25;;;17.78;77.46
43125;BME280;49182;50.788;7.318;2023-08-01T18:02:44;99665.59;;;17.58;79.65
43125;BME280;49182;50.788;7.318;2023-08-01T18:07:46;99687.75;;;17.59;79.60
43125;BME280;49182;50.788;7.318;2023-08-01T18:12:48;99691.38;;;17.31;80.74
43125;BME280;49182;50.788;7.318;2023-08-01T18:17:51;99709.28;;;16.96;80.03
43125;BME280;49182;50.788;7.318;2023-08-01T18:22:53;99710.97;;;16.70;81.64
43125;BME280;49182;50.788;7.318;2023-08-01T18:27:56;99689.88;;;16.75;82.79
43125;BME280;49182;50.788;7.318;2023-08-01T18:32:59;99635.78;;;16.46;82.72
43125;BME280;49182;50.788;7.318;2023-08-01T18:38:01;99676.34;;;16.76;85.54
43125;BME280;49182;50.788;7.318;2023-08-01T18:43:03;99686.97;;;16.70;86.49
43125;BME280;49182;50.788;7.318;2023-08-01T18:48:06;99686.78;;;16.71;89.47
43125;BME280;49182;50.788;7.318;2023-08-01T18:53:07;99688.41;;;16.66;90.75
43125;BME280;49182;50.788;7.318;2023-08-01T18:58:09;99688.28;;;16.52;91.22
43125;BME280;49182;50.788;7.318;2023-08-01T19:03:12;99668.25;;;16.29;92.28
43125;BME280;49182;50.788;7.318;2023-08-01T19:08:14;99684.28;;;16.35;92.75
43125;BME280;49182;50.788;7.318;2023-08-01T19:13:16;99707.47;;;16.41;93.43
43125;BME280;49182;50.788;7.318;2023-08-01T19:18:19;99738.94;;;16.31;94.88
43125;BME280;49182;50.788;7.318;2023-08-01T19:23:21;99736.34;;;16.38;95.84
43125;BME280;49182;50.788;7.318;2023-08-01T19:28:22;99733.03;;;16.36;96.18
43125;BME280;49182;50.788;7.318;2023-08-01T19:33:26;99734.63;;;16.30;95.80
43125;BME280;49182;50.788;7.318;2023-08-01T19:38:27;99721.19;;;16.17;94.98
43125;BME280;49182;50.788;7.318;2023-08-01T19:43:29;99749.59;;;16.31;96.04
43125;BME280;49182;50.788;7.318;2023-08-01T19:48:33;99754.09;;;16.31;96.95
43125;BME280;49182;50.788;7.318;2023-08-01T19:53:38;99754.94;;;16.31;98.30
43125;BME280;49182;50.788;7.318;2023-08-01T19:58:40;99756.97;;;16.29;98.22
43125;BME280;49182;50.788;7.318;2023-08-01T20:03:43;99765.16;;;16.28;98.05
43125;BME280;49182;50.788;7.318;2023-08-01T20:08:45;99763.44;;;16.20;98.19
43125;BME280;49182;50.788;7.318;2023-08-01T20:13:46;99752.97;;;16.18;99.13
43125;BME280;49182;50.788;7.318;2023-08-01T20:18:49;99709.19;;;15.78;100.00
43125;BME280;49182;50.788;7.318;2023-08-01T20:23:51;99747.28;;;16.00;100.00
43125;BME280;49182;50.788;7.318;2023-08-01T20:28:53;99744.94;;;15.91;100.00
43125;BME280;49182;50.788;7.318;2023-08-01T20:33:56;99747.03;;;15.95;100.00
43125;BME280;49182;50.788;7.318;2023-08-01T20:38:58;99747.84;;;15.96;100.00
43125;BME280;49182;50.788;7.318;2023-08-01T20:43:59;99744.38;;;15.95;100.00
43125;BME280;49182;50.788;7.318;2023-08-01T20:49:03;99736.38;;;15.95;100.00
43125;BME280;49182;50.788;7.318;2023-08-01T20:54:04;99739.88;;;15.96;100.00
43125;BME280;49182;50.788;7.318;2023-08-01T20:59:06;99738.22;;;15.95;100.00
43125;BME280;49182;50.788;7.318;2023-08-01T21:04:09;99748.94;;;16.01;100.00
43125;BME280;49182;50.788;7.318;2023-08-01T21:09:11;99743.84;;;16.06;100.00
43125;BME280;49182;50.788;7.318;2023-08-01T21:14:13;99747.47;;;15.99;100.00
43125;BME280;49182;50.788;7.318;2023-08-01T21:19:16;99739.22;;;15.94;100.00
43125;BME280;49182;50.788;7.318;2023-08-01T21:24:18;99734.47;;;15.89;100.00
43125;BME280;49182;50.788;7.318;2023-08-01T21:29:20;99727.91;;;15.85;100.00
43125;BME280;49182;50.788;7.318;2023-08-01T21:34:23;99727.25;;;15.83;100.00
43125;BME280;49182;50.788;7.318;2023-08-01T21:39:24;99733.75;;;15.81;100.00
43125;BME280;49182;50.788;7.318;2023-08-01T21:44:26;99728.00;;;15.77;100.00
43125;BME280;49182;50.788;7.318;2023-08-01T21:49:29;99726.34;;;15.76;100.00
43125;BME280;49182;50.788;7.318;2023-08-01T21:54:31;99716.53;;;15.76;100.00
43125;BME280;49182;50.788;7.318;2023-08-01T21:59:33;99714.31;;;15.80;100.00
43125;BME280;49182;50.788;7.318;2023-08-01T22:04:36;99688.06;;;15.56;100.00
43125;BME280;49182;50.788;7.318;2023-08-01T22:09:37;99724.94;;;15.80;100.00
43125;BME280;49182;50.788;7.318;2023-08-01T22:14:39;99723.13;;;15.81;100.00
43125;BME280;49182;50.788;7.318;2023-08-01T22:19:42;99715.53;;;15.77;100.00
43125;BME280;49182;50.788;7.318;2023-08-01T22:24:45;99721.03;;;15.76;100.00
43125;BME280;49182;50.788;7.318;2023-08-01T22:29:47;99715.72;;;15.76;100.00
43125;BME280;49182;50.788;7.318;2023-08-01T22:34:50;99715.13;;;15.81;100.00
43125;BME280;49182;50.788;7.318;2023-08-01T22:39:52;99716.16;;;15.80;100.00
43125;BME280;49182;50.788;7.318;2023-08-01T22:44:53;99729.84;;;15.76;100.00
43125;BME280;49182;50.788;7.318;2023-08-01T22:49:56;99710.06;;;15.64;100.00
43125;BME280;49182;50.788;7.318;2023-08-01T22:55:11;99722.88;;;15.75;100.00
43125;BME280;49182;50.788;7.318;2023-08-01T23:00:14;99690.34;;;15.80;100.00
43125;BME280;49182;50.788;7.318;2023-08-01T23:05:17;99687.50;;;15.82;100.00
43125;BME280;49182;50.788;7.318;2023-08-01T23:10:19;99663.69;;;15.73;100.00
43125;BME280;49182;50.788;7.318;2023-08-01T23:15:28;99664.88;;;15.71;100.00
43125;BME280;49182;50.788;7.318;2023-08-01T23:20:31;99666.38;;;15.73;100.00
43125;BME280;49182;50.788;7.318;2023-08-01T23:25:32;99662.81;;;15.66;100.00
43125;BME280;49182;50.788;7.318;2023-08-01T23:30:34;99632.22;;;15.41;100.00
43125;BME280;49182;50.788;7.318;2023-08-01T23:35:37;99660.25;;;15.58;100.00
43125;BME280;49182;50.788;7.318;2023-08-01T23:40:39;99671.09;;;15.57;100.00
43125;BME280;49182;50.788;7.318;2023-08-01T23:45:52;99641.22;;;15.40;100.00
43125;BME280;49182;50.788;7.318;2023-08-01T23:50:55;99653.34;;;15.43;100.00
43125;BME280;49182;50.788;7.318;2023-08-01T23:55:57;99655.63;;;15.31;100.00
